Time;durP1;ratioP1;P1;durP2;ratioP2;P2;SDS_P1;SDS_P2;PMS_P1;PMS_P2;Temp;Humidity;BMP_temperature;BMP_pressure;BME280_temperature;BME280_humidity;BME280_pressure;Samples;Min_cycle;Max_cycle;Signal;HPM_P1;HPM_P2
2024/01/02 00:02:03;;;;;;;;;;;7.00;99.90;;;;;;5127700;27;19915;-69
2024/01/02 00:04:28;;;;;;;;;;;7.00;99.90;;;;;;5128123;27;19916;-69
2024/01/02 00:06:54;;;;;;;;;;;7.00;99.90;;;;;;5110689;27;19963;-69
2024/01/02 00:09:19;;;;;;;;;;;7.00;99.90;;;;;;5114896;27;19955;-69
2024/01/02 00:11:45;;;;;;;;;;;7.00;99.90;;;;;;5131321;27;20646;-69
2024/01/02 00:14:10;;;;;;;;;;;7.00;99.90;;;;;;5129110;27;19911;-69
2024/01/02 00:16:36;;;;;;;;;;;7.00;99.90;;;;;;5129252;27;19919;-69
2024/01/02 00:19:01;;;;;;;;;;;7.00;99.90;;;;;;5111631;27;19912;-69
2024/01/02 00:21:27;;;;;;;;;;;7.00;99.90;;;;;;5128405;27;19911;-69
2024/01/02 00:23:52;;;;;;;;;;;7.00;99.90;;;;;;5129358;27;20577;-69
2024/01/02 00:26:18;;;;;;;;;;;7.00;99.90;;;;;;5128951;27;19919;-69
2024/01/02 00:28:43;;;;;;;;;;;7.00;99.90;;;;;;5131240;27;19911;-70
2024/01/02 00:31:09;;;;;;;;;;;7.00;99.90;;;;;;5109841;27;19919;-69
2024/01/02 00:33:34;;;;;;;;;;;7.00;99.90;;;;;;5128953;27;19955;-69
2024/01/02 00:36:00;;;;;;;;;;;7.00;99.90;;;;;;5130942;27;19923;-69
2024/01/02 00:38:27;;;;;;;;;;;7.00;99.90;;;;;;5129127;27;20011;-69
2024/01/02 00:40:52;;;;;;;;;;;7.00;99.90;;;;;;5128608;27;20291;-69
2024/01/02 00:43:18;;;;;;;;;;;7.00;99.90;;;;;;5126779;27;19911;-69
2024/01/02 00:45:44;;;;;;;;;;;7.00;99.90;;;;;;5126882;27;19908;-69
2024/01/02 00:48:09;;;;;;;;;;;7.00;99.90;;;;;;5119451;27;19911;-69
2024/01/02 00:50:35;;;;;;;;;;;7.00;99.90;;;;;;5129595;27;20317;-69
2024/01/02 00:53:03;;;;;;;;;;;7.00;99.90;;;;;;5127259;27;19911;-69
2024/01/02 00:55:29;;;;;;;;;;;7.00;99.90;;;;;;5125424;27;20442;-69
2024/01/02 00:57:54;;;;;;;;;;;7.00;99.90;;;;;;5127661;27;19915;-69
2024/01/02 01:00:20;;;;;;;;;;;7.00;99.90;;;;;;5127430;27;19908;-69
2024/01/02 01:02:45;;;;;;;;;;;7.00;99.90;;;;;;5126920;27;19911;-69
2024/01/02 01:05:11;;;;;;;;;;;7.00;99.90;;;;;;5126148;27;20391;-69
2024/01/02 01:07:36;;;;;;;;;;;7.00;99.90;;;;;;5126046;27;19915;-69
2024/01/02 01:10:02;;;;;;;;;;;7.00;99.90;;;;;;5103027;27;19998;-69
2024/01/02 01:12:28;;;;;;;;;;;7.00;99.90;;;;;;5128334;27;20025;-69
2024/01/02 01:14:53;;;;;;;;;;;7.00;99.90;;;;;;5130142;27;19953;-69
2024/01/02 01:17:19;;;;;;;;;;;7.00;99.90;;;;;;5125505;27;19916;-69
2024/01/02 01:19:44;;;;;;;;;;;7.00;99.90;;;;;;5126012;27;19915;-69
2024/01/02 01:22:10;;;;;;;;;;;7.00;99.90;;;;;;5128274;27;19911;-69
2024/01/02 01:24:35;;;;;;;;;;;7.00;99.90;;;;;;5126244;27;19994;-69
2024/01/02 01:27:01;;;;;;;;;;;7.00;99.90;;;;;;5130764;27;19911;-70
2024/01/02 01:29:26;;;;;;;;;;;7.00;99.90;;;;;;5108994;27;20365;-69
2024/01/02 01:31:52;;;;;;;;;;;7.00;99.90;;;;;;5126890;27;19920;-69
2024/01/02 01:34:17;;;;;;;;;;;7.00;99.90;;;;;;5130437;27;19915;-69
2024/01/02 01:36:43;;;;;;;;;;;7.00;99.90;;;;;;5120933;27;19962;-69
2024/01/02 01:39:09;;;;;;;;;;;7.00;99.90;;;;;;5113517;27;19911;-69
2024/01/02 01:41:34;;;;;;;;;;;7.00;99.90;;;;;;5130539;27;19976;-69
2024/01/02 01:44:00;;;;;;;;;;;7.00;99.90;;;;;;5130070;27;20375;-69
2024/01/02 01:46:36;;;;;;;;;;;7.00;99.90;;;;;;5128039;27;19916;-69
2024/01/02 01:49:02;;;;;;;;;;;7.10;99.90;;;;;;5109761;27;20624;-69
2024/01/02 01:51:28;;;;;;;;;;;7.10;99.90;;;;;;5129682;27;20660;-69
2024/01/02 01:53:54;;;;;;;;;;;7.00;99.90;;;;;;5128235;27;20025;-69
2024/01/02 01:56:20;;;;;;;;;;;7.00;99.90;;;;;;5127985;27;20555;-69
2024/01/02 01:58:46;;;;;;;;;;;7.00;99.90;;;;;;5130686;27;19911;-69
2024/01/02 02:01:11;;;;;;;;;;;7.00;99.90;;;;;;5129425;27;20454;-69
2024/01/02 02:03:37;;;;;;;;;;;7.10;99.90;;;;;;5127920;27;19943;-69
2024/01/02 02:06:03;;;;;;;;;;;7.00;99.90;;;;;;5131006;27;19911;-69
2024/01/02 02:08:28;;;;;;;;;;;7.00;99.90;;;;;;5132476;27;19948;-69
2024/01/02 02:10:54;;;;;;;;;;;7.10;99.90;;;;;;5129503;27;19915;-69
2024/01/02 02:13:20;;;;;;;;;;;7.10;99.90;;;;;;5130019;27;20046;-69
2024/01/02 02:15:48;;;;;;;;;;;7.10;99.90;;;;;;5127704;27;19912;-69
2024/01/02 02:18:14;;;;;;;;;;;7.10;99.90;;;;;;5126075;27;20264;-69
2024/01/02 02:20:40;;;;;;;;;;;7.10;99.90;;;;;;5109579;28;19911;-69
2024/01/02 02:23:05;;;;;;;;;;;7.10;99.90;;;;;;5128827;27;19911;-69
2024/01/02 02:25:31;;;;;;;;;;;7.10;99.90;;;;;;5131881;27;19910;-69
2024/01/02 02:27:56;;;;;;;;;;;7.10;99.90;;;;;;5106709;28;19922;-69
2024/01/02 02:30:22;;;;;;;;;;;7.10;99.90;;;;;;5128665;27;19911;-69
2024/01/02 02:32:47;;;;;;;;;;;7.10;99.90;;;;;;5130309;27;20415;-69
2024/01/02 02:35:13;;;;;;;;;;;7.00;99.90;;;;;;5132615;27;19968;-69
2024/01/02 02:37:38;;;;;;;;;;;7.10;99.90;;;;;;5125652;27;19915;-69
2024/01/02 02:40:04;;;;;;;;;;;7.10;99.90;;;;;;5131087;27;20292;-69
2024/01/02 02:42:30;;;;;;;;;;;7.10;99.90;;;;;;5131214;27;20411;-69
2024/01/02 02:44:56;;;;;;;;;;;7.10;99.90;;;;;;5130574;27;19907;-69
2024/01/02 02:47:22;;;;;;;;;;;7.10;99.90;;;;;;5108915;28;19911;-69
2024/01/02 02:49:49;;;;;;;;;;;7.10;99.90;;;;;;5111874;28;19964;-69
2024/01/02 02:52:15;;;;;;;;;;;7.10;99.90;;;;;;5108930;28;19962;-69
2024/01/02 02:54:41;;;;;;;;;;;7.10;99.90;;;;;;5130311;27;19958;-69
2024/01/02 02:57:06;;;;;;;;;;;7.10;99.90;;;;;;5128570;27;19927;-69
2024/01/02 02:59:31;;;;;;;;;;;7.10;99.90;;;;;;5129188;27;19911;-69
2024/01/02 03:01:57;;;;;;;;;;;7.10;99.90;;;;;;5108632;28;19919;-69
2024/01/02 03:04:23;;;;;;;;;;;7.10;99.90;;;;;;5122201;27;19911;-69
2024/01/02 03:06:49;;;;;;;;;;;7.10;99.90;;;;;;5124799;27;19939;-69
2024/01/02 03:09:14;;;;;;;;;;;7.10;99.90;;;;;;5106197;27;19950;-69
2024/01/02 03:11:40;;;;;;;;;;;7.10;99.90;;;;;;5105884;28;19937;-69
2024/01/02 03:14:05;;;;;;;;;;;7.10;99.90;;;;;;5124513;27;19919;-69
2024/01/02 03:16:31;;;;;;;;;;;7.10;99.90;;;;;;5123883;27;19954;-69
2024/01/02 03:18:56;;;;;;;;;;;7.10;99.90;;;;;;5124640;28;20449;-69
2024/01/02 03:21:27;;;;;;;;;;;7.10;99.90;;;;;;5123661;27;20441;-69
2024/01/02 03:23:53;;;;;;;;;;;7.10;99.90;;;;;;5122436;27;19912;-69
2024/01/02 03:26:18;;;;;;;;;;;7.10;99.90;;;;;;5124797;27;20346;-69
2024/01/02 03:28:44;;;;;;;;;;;7.00;99.90;;;;;;5124842;27;19947;-69
2024/01/02 03:31:10;;;;;;;;;;;7.00;99.90;;;;;;5122237;27;19925;-69
2024/01/02 03:33:35;;;;;;;;;;;7.10;99.90;;;;;;5105955;28;19907;-69
2024/01/02 03:36:01;;;;;;;;;;;7.10;99.90;;;;;;5106117;27;20593;-69
2024/01/02 03:38:26;;;;;;;;;;;7.10;99.90;;;;;;5108642;27;19915;-69
2024/01/02 03:40:52;;;;;;;;;;;7.00;99.90;;;;;;5128086;27;19925;-69
2024/01/02 03:43:17;;;;;;;;;;;7.10;99.90;;;;;;5128106;27;19911;-69
2024/01/02 03:45:43;;;;;;;;;;;7.10;99.90;;;;;;5128599;27;19923;-69
2024/01/02 03:48:08;;;;;;;;;;;7.10;99.90;;;;;;5128044;27;19911;-69
2024/01/02 03:50:34;;;;;;;;;;;7.10;99.90;;;;;;5128179;27;19995;-69
2024/01/02 03:52:59;;;;;;;;;;;7.00;99.90;;;;;;5127902;27;19998;-69
2024/01/02 03:55:24;;;;;;;;;;;7.10;99.90;;;;;;5125327;27;19937;-69
2024/01/02 03:57:50;;;;;;;;;;;7.10;99.90;;;;;;5109181;27;19931;-69
2024/01/02 04:00:16;;;;;;;;;;;7.10;99.90;;;;;;5127105;27;19918;-69
2024/01/02 04:02:41;;;;;;;;;;;7.10;99.90;;;;;;5130863;27;20363;-69
2024/01/02 04:05:07;;;;;;;;;;;7.10;99.90;;;;;;5141179;27;20608;-69
2024/01/02 04:07:32;;;;;;;;;;;7.10;99.90;;;;;;5148915;27;20001;-69
2024/01/02 04:09:58;;;;;;;;;;;7.10;99.90;;;;;;5148301;27;19934;-69
2024/01/02 04:12:23;;;;;;;;;;;7.10;99.90;;;;;;5138505;27;19995;-69
2024/01/02 04:14:49;;;;;;;;;;;7.10;99.90;;;;;;5149249;27;19963;-69
2024/01/02 04:17:14;;;;;;;;;;;7.10;99.90;;;;;;5140348;27;19914;-69
2024/01/02 04:19:40;;;;;;;;;;;7.10;99.90;;;;;;5137249;27;20054;-69
2024/01/02 04:22:05;;;;;;;;;;;7.10;99.90;;;;;;5130246;27;19908;-69
2024/01/02 04:24:31;;;;;;;;;;;7.10;99.90;;;;;;5114359;27;19918;-69
2024/01/02 04:26:56;;;;;;;;;;;7.10;99.90;;;;;;5136547;27;19919;-69
2024/01/02 04:29:22;;;;;;;;;;;7.10;99.90;;;;;;5143239;27;20635;-69
2024/01/02 04:31:47;;;;;;;;;;;7.10;99.90;;;;;;5127732;27;19919;-69
2024/01/02 04:34:13;;;;;;;;;;;7.10;99.90;;;;;;5136864;27;19918;-68
2024/01/02 04:36:42;;;;;;;;;;;7.10;99.90;;;;;;5136505;27;20292;-69
2024/01/02 04:39:08;;;;;;;;;;;7.10;99.90;;;;;;5136490;27;19918;-68
2024/01/02 04:41:33;;;;;;;;;;;7.10;99.90;;;;;;5132359;27;20268;-69
2024/01/02 04:43:59;;;;;;;;;;;7.10;99.90;;;;;;5135715;27;20283;-69
2024/01/02 04:46:27;;;;;;;;;;;7.10;99.90;;;;;;5123920;27;19907;-69
2024/01/02 04:48:52;;;;;;;;;;;7.10;99.90;;;;;;5132118;27;19912;-69
2024/01/02 04:51:18;;;;;;;;;;;7.10;99.90;;;;;;5126774;27;19917;-69
2024/01/02 04:53:43;;;;;;;;;;;7.10;99.90;;;;;;5142030;27;19918;-69
2024/01/02 04:56:09;;;;;;;;;;;7.10;99.90;;;;;;5108208;27;19927;-69
2024/01/02 04:58:34;;;;;;;;;;;7.10;99.90;;;;;;5123780;27;19911;-69
2024/01/02 05:01:00;;;;;;;;;;;7.10;99.90;;;;;;5141228;27;19952;-69
2024/01/02 05:03:26;;;;;;;;;;;7.10;99.90;;;;;;5128171;27;19914;-69
2024/01/02 05:05:51;;;;;;;;;;;7.10;99.90;;;;;;5128101;27;19912;-69
2024/01/02 05:08:17;;;;;;;;;;;7.10;99.90;;;;;;5118334;27;19919;-69
2024/01/02 05:10:42;;;;;;;;;;;7.10;99.90;;;;;;5136661;27;19911;-69
2024/01/02 05:13:08;;;;;;;;;;;7.10;99.90;;;;;;5127413;27;19911;-69
2024/01/02 05:15:33;;;;;;;;;;;7.10;99.90;;;;;;5147395;27;19913;-69
2024/01/02 05:17:59;;;;;;;;;;;7.10;99.90;;;;;;5138804;27;20344;-69
2024/01/02 05:20:24;;;;;;;;;;;7.10;99.90;;;;;;5143317;27;19967;-69
2024/01/02 05:22:50;;;;;;;;;;;7.10;99.90;;;;;;5142503;27;20038;-69
2024/01/02 05:25:15;;;;;;;;;;;7.20;99.90;;;;;;5117974;27;20282;-69
2024/01/02 05:27:41;;;;;;;;;;;7.20;99.90;;;;;;5136984;27;19912;-69
2024/01/02 05:30:07;;;;;;;;;;;7.20;99.90;;;;;;5117209;27;19922;-69
2024/01/02 05:32:32;;;;;;;;;;;7.20;99.90;;;;;;5134744;27;19919;-69
2024/01/02 05:34:58;;;;;;;;;;;7.20;99.90;;;;;;5134738;27;19911;-69
2024/01/02 05:37:23;;;;;;;;;;;7.20;99.90;;;;;;5123937;27;19941;-69
2024/01/02 05:39:49;;;;;;;;;;;7.20;99.90;;;;;;5107487;27;19922;-69
2024/01/02 05:42:14;;;;;;;;;;;7.20;99.90;;;;;;5126540;27;20359;-69
2024/01/02 05:44:40;;;;;;;;;;;7.20;99.90;;;;;;5131348;27;19911;-69
2024/01/02 05:47:05;;;;;;;;;;;7.20;99.90;;;;;;5128617;27;19915;-69
2024/01/02 05:49:31;;;;;;;;;;;7.20;99.90;;;;;;5122183;27;19912;-69
2024/01/02 05:51:57;;;;;;;;;;;7.20;99.90;;;;;;5130977;27;19922;-69
2024/01/02 05:54:22;;;;;;;;;;;7.20;99.90;;;;;;5134352;27;19912;-69
2024/01/02 05:56:48;;;;;;;;;;;7.20;99.90;;;;;;5125869;27;20306;-69
2024/01/02 05:59:13;;;;;;;;;;;7.20;99.90;;;;;;5112458;27;20253;-69
2024/01/02 06:01:39;;;;;;;;;;;7.30;99.90;;;;;;5137875;27;19908;-69
2024/01/02 06:04:04;;;;;;;;;;;7.20;99.90;;;;;;5134523;27;20579;-69
2024/01/02 06:06:30;;;;;;;;;;;7.30;99.90;;;;;;5130110;27;19911;-69
2024/01/02 06:08:55;;;;;;;;;;;7.20;99.90;;;;;;5112157;27;19911;-69
2024/01/02 06:11:21;;;;;;;;;;;7.30;99.90;;;;;;5121420;27;19915;-69
2024/01/02 06:13:46;;;;;;;;;;;7.30;99.90;;;;;;5131717;27;20521;-69
2024/01/02 06:16:12;;;;;;;;;;;7.30;99.90;;;;;;5142358;27;20664;-69
2024/01/02 06:18:37;;;;;;;;;;;7.30;99.90;;;;;;5134184;27;19912;-69
2024/01/02 06:21:04;;;;;;;;;;;7.30;99.90;;;;;;5142072;27;19926;-69
2024/01/02 06:23:33;;;;;;;;;;;7.30;99.90;;;;;;5130321;27;19918;-69
2024/01/02 06:25:58;;;;;;;;;;;7.30;99.90;;;;;;5134819;27;19962;-68
2024/01/02 06:28:24;;;;;;;;;;;7.30;99.90;;;;;;5125616;27;19976;-69
2024/01/02 06:30:50;;;;;;;;;;;7.30;99.90;;;;;;5131697;27;20313;-69
2024/01/02 06:33:16;;;;;;;;;;;7.40;99.90;;;;;;5132752;27;19912;-69
2024/01/02 06:35:41;;;;;;;;;;;7.40;99.90;;;;;;5131835;27;19911;-69
2024/01/02 06:38:07;;;;;;;;;;;7.40;99.90;;;;;;5128599;27;19923;-69
2024/01/02 06:40:33;;;;;;;;;;;7.40;99.90;;;;;;5125643;27;19911;-69
2024/01/02 06:42:58;;;;;;;;;;;7.40;99.90;;;;;;5134513;27;20352;-69
2024/01/02 06:45:23;;;;;;;;;;;7.40;99.90;;;;;;5133982;27;19915;-69
2024/01/02 06:47:49;;;;;;;;;;;7.40;99.90;;;;;;5136485;27;19911;-69
2024/01/02 06:50:14;;;;;;;;;;;7.40;99.90;;;;;;5132433;27;19911;-69
2024/01/02 06:52:40;;;;;;;;;;;7.50;99.90;;;;;;5123975;27;19911;-69
2024/01/02 06:55:06;;;;;;;;;;;7.40;99.90;;;;;;5134557;27;20002;-69
2024/01/02 06:57:32;;;;;;;;;;;7.50;99.90;;;;;;5137657;27;19962;-69
2024/01/02 06:59:58;;;;;;;;;;;7.50;99.90;;;;;;5143816;27;19922;-69
2024/01/02 07:02:23;;;;;;;;;;;7.50;99.90;;;;;;5136884;27;19911;-69
2024/01/02 07:04:49;;;;;;;;;;;7.50;99.90;;;;;;5120907;28;20001;-69
2024/01/02 07:07:14;;;;;;;;;;;7.50;99.90;;;;;;5126466;27;19923;-69
2024/01/02 07:09:40;;;;;;;;;;;7.50;99.90;;;;;;5139439;27;20369;-69
2024/01/02 07:12:05;;;;;;;;;;;7.50;99.90;;;;;;5119304;27;19997;-69
2024/01/02 07:14:33;;;;;;;;;;;7.50;99.90;;;;;;5140845;27;20088;-69
2024/01/02 07:16:59;;;;;;;;;;;7.60;99.90;;;;;;5129571;27;19915;-69
2024/01/02 07:19:24;;;;;;;;;;;7.60;99.90;;;;;;5109090;27;19911;-69
2024/01/02 07:21:50;;;;;;;;;;;7.60;99.90;;;;;;5127705;27;20327;-69
2024/01/02 07:24:18;;;;;;;;;;;7.60;99.90;;;;;;5128034;27;20272;-69
2024/01/02 07:26:44;;;;;;;;;;;7.60;99.90;;;;;;5128183;27;19918;-69
2024/01/02 07:29:09;;;;;;;;;;;7.70;99.90;;;;;;5131857;27;20295;-69
2024/01/02 07:31:35;;;;;;;;;;;7.70;99.90;;;;;;5131436;27;20019;-69
2024/01/02 07:34:01;;;;;;;;;;;7.70;99.90;;;;;;5129359;27;20356;-69
2024/01/02 07:36:27;;;;;;;;;;;7.70;99.90;;;;;;5110496;27;19916;-69
2024/01/02 07:38:52;;;;;;;;;;;7.80;99.90;;;;;;5128124;27;20286;-69
2024/01/02 07:41:18;;;;;;;;;;;7.80;99.90;;;;;;5109578;27;19915;-69
2024/01/02 07:43:43;;;;;;;;;;;7.80;99.90;;;;;;5127824;27;19915;-69
2024/01/02 07:46:09;;;;;;;;;;;7.80;99.90;;;;;;5126440;27;19964;-69
2024/01/02 07:48:34;;;;;;;;;;;7.80;99.90;;;;;;5126451;27;20019;-69
2024/01/02 07:51:00;;;;;;;;;;;7.80;99.90;;;;;;5126219;27;20657;-69
2024/01/02 07:53:25;;;;;;;;;;;7.90;99.90;;;;;;5126107;27;19911;-69
2024/01/02 07:55:51;;;;;;;;;;;7.90;99.90;;;;;;5108904;27;19978;-69
2024/01/02 07:58:16;;;;;;;;;;;7.90;99.90;;;;;;5128456;27;19912;-69
2024/01/02 08:00:42;;;;;;;;;;;8.00;99.90;;;;;;5127929;27;19932;-69
2024/01/02 08:03:09;;;;;;;;;;;8.00;99.90;;;;;;5110341;27;19916;-69
2024/01/02 08:05:34;;;;;;;;;;;8.00;99.90;;;;;;5132717;27;19911;-69
2024/01/02 08:08:00;;;;;;;;;;;8.00;99.90;;;;;;5132285;27;19918;-69
2024/01/02 08:10:26;;;;;;;;;;;8.00;99.90;;;;;;5135814;27;19912;-69
2024/01/02 08:12:51;;;;;;;;;;;8.10;99.90;;;;;;5108226;27;20533;-69
2024/01/02 08:15:17;;;;;;;;;;;8.10;99.90;;;;;;5148579;27;19915;-69
2024/01/02 08:17:42;;;;;;;;;;;8.10;99.90;;;;;;5142685;27;19964;-69
2024/01/02 08:20:09;;;;;;;;;;;8.20;99.90;;;;;;5127631;27;19969;-69
2024/01/02 08:22:34;;;;;;;;;;;8.20;99.90;;;;;;5128329;27;19943;-69
2024/01/02 08:25:00;;;;;;;;;;;8.20;99.90;;;;;;5128102;27;19946;-69
2024/01/02 08:27:25;;;;;;;;;;;8.30;99.90;;;;;;5144528;27;19922;-69
2024/01/02 08:29:51;;;;;;;;;;;8.20;99.90;;;;;;5142023;27;20573;-69
2024/01/02 08:32:17;;;;;;;;;;;8.30;99.90;;;;;;5119159;27;19988;-69
2024/01/02 08:34:43;;;;;;;;;;;8.30;99.90;;;;;;5143737;27;19971;-69
2024/01/02 08:37:09;;;;;;;;;;;8.30;99.90;;;;;;5144625;27;20341;-69
2024/01/02 08:39:34;;;;;;;;;;;8.30;99.90;;;;;;5131503;27;19994;-68
2024/01/02 08:42:00;;;;;;;;;;;8.40;99.90;;;;;;5131665;27;19960;-69
2024/01/02 08:44:25;;;;;;;;;;;8.40;99.90;;;;;;5130988;27;19911;-69
2024/01/02 08:46:51;;;;;;;;;;;8.40;99.90;;;;;;5139618;27;20259;-69
2024/01/02 08:49:17;;;;;;;;;;;8.40;99.90;;;;;;5147889;27;19946;-69
2024/01/02 08:51:42;;;;;;;;;;;8.40;99.90;;;;;;5148036;27;19911;-69
2024/01/02 08:54:08;;;;;;;;;;;8.50;99.90;;;;;;5120540;27;19937;-69
2024/01/02 08:56:33;;;;;;;;;;;8.50;99.90;;;;;;5143051;27;19993;-69
2024/01/02 08:58:59;;;;;;;;;;;8.50;99.90;;;;;;5148023;27;19915;-69
2024/01/02 09:01:25;;;;;;;;;;;8.50;99.90;;;;;;5138741;27;19954;-69
2024/01/02 09:03:50;;;;;;;;;;;8.50;99.90;;;;;;5141329;27;19914;-69
2024/01/02 09:06:17;;;;;;;;;;;8.50;99.90;;;;;;5142259;27;20394;-69
2024/01/02 09:08:43;;;;;;;;;;;8.60;99.90;;;;;;5135011;27;19918;-69
2024/01/02 09:11:11;;;;;;;;;;;8.60;99.90;;;;;;5139313;27;19907;-69
2024/01/02 09:13:37;;;;;;;;;;;8.60;99.90;;;;;;5134123;27;19915;-69
2024/01/02 09:16:03;;;;;;;;;;;8.60;99.90;;;;;;5133128;27;20464;-69
2024/01/02 09:18:28;;;;;;;;;;;8.60;99.90;;;;;;5147360;27;19917;-69
2024/01/02 09:20:54;;;;;;;;;;;8.70;99.90;;;;;;5120233;27;19907;-69
2024/01/02 09:23:20;;;;;;;;;;;8.70;99.90;;;;;;5140981;27;20079;-69
2024/01/02 09:25:46;;;;;;;;;;;8.70;99.90;;;;;;5126662;27;20023;-69
2024/01/02 09:28:13;;;;;;;;;;;8.70;99.90;;;;;;5144243;27;20628;-69
2024/01/02 09:30:38;;;;;;;;;;;8.70;99.90;;;;;;5134233;27;19933;-69
2024/01/02 09:33:04;;;;;;;;;;;8.70;99.90;;;;;;5130917;27;20411;-69
2024/01/02 09:35:29;;;;;;;;;;;8.80;99.90;;;;;;5138011;27;20336;-69
2024/01/02 09:37:56;;;;;;;;;;;8.80;99.90;;;;;;5147130;27;19926;-69
2024/01/02 09:40:41;;;;;;;;;;;8.80;99.90;;;;;;5136365;27;19951;-69
2024/01/02 09:43:17;;;;;;;;;;;8.80;99.90;;;;;;5115930;27;19915;-69
2024/01/02 09:46:12;;;;;;;;;;;8.80;99.90;;;;;;5138416;27;19915;-69
2024/01/02 09:48:38;;;;;;;;;;;8.90;99.90;;;;;;5046503;27;19987;-69
2024/01/02 09:51:16;;;;;;;;;;;8.90;99.90;;;;;;5146500;27;19961;-69
2024/01/02 09:54:00;;;;;;;;;;;8.90;99.90;;;;;;5132881;27;20000;-69
2024/01/02 09:56:35;;;;;;;;;;;8.90;99.90;;;;;;5142829;27;19915;-69
2024/01/02 09:59:15;;;;;;;;;;;8.90;99.90;;;;;;5126205;27;20570;-69
2024/01/02 10:01:59;;;;;;;;;;;8.90;99.90;;;;;;5136065;27;19911;-69
2024/01/02 10:04:43;;;;;;;;;;;8.90;99.90;;;;;;5126395;27;19988;-69
2024/01/02 10:07:08;;;;;;;;;;;8.90;99.90;;;;;;5143035;27;20405;-69
2024/01/02 10:09:53;;;;;;;;;;;8.90;99.90;;;;;;5138266;27;19919;-69
2024/01/02 10:12:24;;;;;;;;;;;9.00;99.90;;;;;;5137318;27;19915;-69
2024/01/02 10:14:58;;;;;;;;;;;9.00;99.90;;;;;;5146485;27;19915;-69
2024/01/02 10:17:24;;;;;;;;;;;9.00;99.90;;;;;;5134460;27;19919;-69
2024/01/02 10:20:08;;;;;;;;;;;9.00;99.90;;;;;;5125852;27;20225;-69
2024/01/02 10:22:46;;;;;;;;;;;9.00;99.90;;;;;;5138866;27;19911;-69
2024/01/02 10:25:14;;;;;;;;;;;9.00;99.90;;;;;;5136849;27;19911;-69
2024/01/02 10:27:43;;;;;;;;;;;9.10;99.90;;;;;;5129195;27;19908;-69
2024/01/02 10:30:11;;;;;;;;;;;9.10;99.90;;;;;;5135193;27;19960;-69
2024/01/02 10:32:47;;;;;;;;;;;9.10;99.90;;;;;;5108113;28;20699;-69
2024/01/02 10:35:31;;;;;;;;;;;9.10;99.90;;;;;;5135132;27;19955;-69
2024/01/02 10:38:20;;;;;;;;;;;9.10;99.90;;;;;;5146494;27;20555;-69
2024/01/02 10:41:04;;;;;;;;;;;9.10;99.90;;;;;;5074786;27;19919;-69
2024/01/02 10:43:31;;;;;;;;;;;9.20;99.90;;;;;;5146049;27;19959;-69
2024/01/02 10:46:04;;;;;;;;;;;9.10;99.90;;;;;;5138385;27;19922;-69
2024/01/02 10:48:44;;;;;;;;;;;9.20;99.90;;;;;;5105821;27;19919;-69
2024/01/02 10:51:18;;;;;;;;;;;9.20;99.90;;;;;;5122058;27;19959;-69
2024/01/02 10:54:03;;;;;;;;;;;9.20;99.90;;;;;;5133021;27;20029;-69
2024/01/02 10:56:49;;;;;;;;;;;9.20;99.90;;;;;;5149467;27;19945;-69
2024/01/02 10:59:26;;;;;;;;;;;9.20;99.90;;;;;;5126272;27;19919;-69
2024/01/02 11:01:55;;;;;;;;;;;9.20;99.90;;;;;;5137343;27;20544;-69
2024/01/02 11:04:27;;;;;;;;;;;9.20;99.90;;;;;;5145402;27;19914;-69
2024/01/02 11:06:59;;;;;;;;;;;9.30;99.90;;;;;;5117206;27;19919;-69
2024/01/02 11:09:30;;;;;;;;;;;9.30;99.90;;;;;;5127664;27;19916;-69
2024/01/02 11:11:57;;;;;;;;;;;9.30;99.90;;;;;;5128953;27;19964;-69
2024/01/02 11:14:24;;;;;;;;;;;9.30;99.90;;;;;;5119988;27;19911;-69
2024/01/02 11:16:52;;;;;;;;;;;9.30;99.90;;;;;;5136169;27;19915;-69
2024/01/02 11:19:22;;;;;;;;;;;9.30;99.90;;;;;;5145494;27;19911;-69
2024/01/02 11:21:51;;;;;;;;;;;9.30;99.90;;;;;;5128335;27;19934;-69
2024/01/02 11:24:21;;;;;;;;;;;9.30;99.90;;;;;;5147887;27;19915;-69
2024/01/02 11:26:47;;;;;;;;;;;9.30;99.90;;;;;;5143872;27;20010;-69
2024/01/02 11:29:16;;;;;;;;;;;9.30;99.90;;;;;;5118539;27;20593;-69
2024/01/02 11:31:42;;;;;;;;;;;9.40;99.90;;;;;;5124229;27;20279;-69
2024/01/02 11:34:14;;;;;;;;;;;9.40;99.90;;;;;;5136773;27;20008;-69
2024/01/02 11:36:51;;;;;;;;;;;9.40;99.90;;;;;;5141819;27;19936;-69
2024/01/02 11:39:19;;;;;;;;;;;9.40;99.90;;;;;;5138537;27;20522;-69
2024/01/02 11:42:13;;;;;;;;;;;9.40;99.90;;;;;;5133537;27;19932;-69
2024/01/02 11:44:44;;;;;;;;;;;9.40;99.90;;;;;;5116700;27;20283;-69
2024/01/02 11:47:28;;;;;;;;;;;9.50;99.90;;;;;;5147690;27;20411;-69
2024/01/02 11:49:55;;;;;;;;;;;9.40;99.90;;;;;;5125913;27;20396;-69
2024/01/02 11:52:21;;;;;;;;;;;9.50;99.90;;;;;;5148126;27;19969;-69
2024/01/02 11:55:06;;;;;;;;;;;9.50;99.90;;;;;;5136373;27;19943;-69
2024/01/02 11:57:39;;;;;;;;;;;9.50;99.90;;;;;;5118726;27;19926;-69
2024/01/02 12:00:08;;;;;;;;;;;9.50;99.90;;;;;;5108694;27;19919;-69
2024/01/02 12:02:42;;;;;;;;;;;9.50;99.90;;;;;;5126448;27;19914;-69
2024/01/02 12:05:16;;;;;;;;;;;9.50;99.90;;;;;;5099753;27;20035;-69
2024/01/02 12:07:44;;;;;;;;;;;9.50;99.90;;;;;;5123611;27;19923;-69
2024/01/02 12:10:12;;;;;;;;;;;9.50;99.90;;;;;;5110926;27;20295;-69
2024/01/02 12:12:40;;;;;;;;;;;9.50;99.90;;;;;;5118070;27;19915;-69
2024/01/02 12:15:28;;;;;;;;;;;9.50;99.90;;;;;;5127226;27;19911;-69
2024/01/02 12:18:03;;;;;;;;;;;9.50;99.90;;;;;;5128338;27;19911;-69
2024/01/02 12:21:01;;;;;;;;;;;9.50;99.90;;;;;;5132030;27;20395;-69
2024/01/02 12:23:27;;;;;;;;;;;9.50;99.90;;;;;;5080069;27;19927;-69
2024/01/02 12:25:55;;;;;;;;;;;9.50;99.90;;;;;;5136555;27;19911;-69
2024/01/02 12:28:22;;;;;;;;;;;9.50;99.90;;;;;;5121501;27;19911;-69
2024/01/02 12:31:04;;;;;;;;;;;9.50;99.90;;;;;;5103147;27;20374;-68
2024/01/02 12:33:36;;;;;;;;;;;9.50;99.90;;;;;;5141764;27;19912;-69
2024/01/02 12:36:05;;;;;;;;;;;9.50;99.90;;;;;;5118989;27;20689;-69
2024/01/02 12:38:38;;;;;;;;;;;9.50;99.90;;;;;;5114119;27;19931;-69
2024/01/02 12:41:08;;;;;;;;;;;9.50;99.90;;;;;;5129298;27;20382;-69
2024/01/02 12:43:35;;;;;;;;;;;9.50;99.90;;;;;;5109952;27;19911;-69
2024/01/02 12:46:21;;;;;;;;;;;9.50;99.90;;;;;;5143118;27;19908;-69
2024/01/02 12:49:13;;;;;;;;;;;9.50;99.90;;;;;;5122619;27;19957;-69
2024/01/02 12:51:41;;;;;;;;;;;9.40;99.90;;;;;;5085119;28;19971;-69
2024/01/02 12:54:08;;;;;;;;;;;9.50;99.90;;;;;;5107700;27;19947;-69
2024/01/02 12:56:38;;;;;;;;;;;9.40;99.90;;;;;;5106268;27;20370;-69
2024/01/02 12:59:05;;;;;;;;;;;9.50;99.90;;;;;;5115436;27;19916;-69
2024/01/02 13:01:31;;;;;;;;;;;9.50;99.90;;;;;;5115649;27;20295;-69
2024/01/02 13:04:00;;;;;;;;;;;9.40;99.90;;;;;;5115901;27;19916;-69
2024/01/02 13:06:26;;;;;;;;;;;9.50;99.90;;;;;;5117546;27;19945;-69
2024/01/02 13:08:52;;;;;;;;;;;9.50;99.90;;;;;;5112548;27;19911;-69
2024/01/02 13:11:18;;;;;;;;;;;9.40;99.90;;;;;;5120567;27;19968;-69
2024/01/02 13:13:44;;;;;;;;;;;9.40;99.90;;;;;;5118790;27;19911;-69
2024/01/02 13:16:10;;;;;;;;;;;9.40;99.90;;;;;;5125487;27;19984;-69
2024/01/02 13:18:35;;;;;;;;;;;9.40;99.90;;;;;;5121490;27;19911;-69
2024/01/02 13:21:02;;;;;;;;;;;9.40;99.90;;;;;;5120100;27;19919;-69
2024/01/02 13:23:28;;;;;;;;;;;9.40;99.90;;;;;;5106089;27;19923;-69
2024/01/02 13:25:53;;;;;;;;;;;9.40;99.90;;;;;;5106224;27;19912;-69
2024/01/02 13:28:26;;;;;;;;;;;9.40;99.90;;;;;;5104849;27;19974;-69
2024/01/02 13:31:01;;;;;;;;;;;9.40;99.90;;;;;;5052815;28;19954;-69
2024/01/02 13:33:37;;;;;;;;;;;9.30;99.90;;;;;;5046504;27;20695;-70
2024/01/02 13:36:04;;;;;;;;;;;9.40;99.90;;;;;;5041288;28;20074;-69
2024/01/02 13:38:30;;;;;;;;;;;9.30;99.90;;;;;;5036812;28;19909;-69
2024/01/02 13:41:03;;;;;;;;;;;9.30;99.90;;;;;;5037458;28;19912;-69
2024/01/02 13:43:29;;;;;;;;;;;9.30;99.90;;;;;;5048238;28;19913;-69
2024/01/02 13:46:07;;;;;;;;;;;9.30;99.90;;;;;;5057582;28;19913;-69
2024/01/02 13:48:33;;;;;;;;;;;9.30;99.90;;;;;;5040559;28;19962;-69
2024/01/02 13:50:59;;;;;;;;;;;9.30;99.90;;;;;;5054745;28;19920;-69
2024/01/02 13:53:25;;;;;;;;;;;9.30;99.90;;;;;;5057551;27;19919;-69
2024/01/02 13:55:51;;;;;;;;;;;9.30;99.90;;;;;;5052254;28;19916;-69
2024/01/02 13:58:16;;;;;;;;;;;9.30;99.90;;;;;;5046059;28;19955;-69
2024/01/02 14:00:46;;;;;;;;;;;9.30;99.90;;;;;;5038257;28;19920;-69
2024/01/02 14:03:15;;;;;;;;;;;9.30;99.90;;;;;;5037641;27;19913;-70
2024/01/02 14:05:43;;;;;;;;;;;9.30;99.90;;;;;;5037902;28;20452;-69
2024/01/02 14:08:14;;;;;;;;;;;9.30;99.90;;;;;;5035961;28;19913;-69
2024/01/02 14:10:39;;;;;;;;;;;9.20;99.90;;;;;;5045165;28;19917;-69
2024/01/02 14:13:06;;;;;;;;;;;9.20;99.90;;;;;;5053806;28;19913;-69
2024/01/02 14:15:33;;;;;;;;;;;9.20;99.90;;;;;;5046180;28;19920;-69
2024/01/02 14:18:06;;;;;;;;;;;9.20;99.90;;;;;;5053093;28;19965;-69
2024/01/02 14:20:44;;;;;;;;;;;9.20;99.90;;;;;;5036339;28;20405;-69
2024/01/02 14:23:19;;;;;;;;;;;9.20;99.90;;;;;;5045786;28;20401;-69
2024/01/02 14:26:00;;;;;;;;;;;9.20;99.90;;;;;;5042791;28;19916;-69
2024/01/02 14:28:26;;;;;;;;;;;9.20;99.90;;;;;;5049051;28;19958;-70
2024/01/02 14:31:21;;;;;;;;;;;9.20;99.90;;;;;;5042841;28;20101;-69
2024/01/02 14:33:46;;;;;;;;;;;9.20;99.90;;;;;;5015820;28;19958;-69
2024/01/02 14:36:31;;;;;;;;;;;9.20;99.90;;;;;;5053057;28;19921;-69